createdAt,value
2022-10-06T00:00:04.973Z,17.00
2022-10-06T00:02:53.435Z,15.20
2022-10-06T00:05:21.442Z,20.20
2022-10-06T00:07:50.662Z,15.00
2022-10-06T00:10:18.695Z,15.15
2022-10-06T00:12:49.254Z,14.30
2022-10-06T00:15:20.703Z,17.17
2022-10-06T00:17:49.293Z,17.58
2022-10-06T00:20:18.705Z,17.52
2022-10-06T00:22:48.912Z,19.88
2022-10-06T00:25:19.925Z,13.40
2022-10-06T00:27:50.095Z,19.95
2022-10-06T00:30:21.374Z,17.60
2022-10-06T00:32:58.808Z,17.73
2022-10-06T00:35:29.108Z,15.57
2022-10-06T00:37:57.205Z,14.88
2022-10-06T00:40:25.633Z,14.68
2022-10-06T00:42:59.162Z,15.38
2022-10-06T00:45:34.883Z,17.67
2022-10-06T00:48:22.286Z,15.13
2022-10-06T00:50:57.905Z,13.10
2022-10-06T00:53:30.180Z,14.32
2022-10-06T00:55:59.878Z,15.93
2022-10-06T00:58:28.386Z,13.57
2022-10-06T01:00:57.336Z,16.23
2022-10-06T01:03:45.503Z,16.27
2022-10-06T01:06:14.146Z,21.85
2022-10-06T01:08:42.534Z,16.20
2022-10-06T01:11:14.279Z,26.13
2022-10-06T01:13:44.769Z,17.42
2022-10-06T01:16:23.445Z,11.45
2022-10-06T01:18:53.853Z,14.88
2022-10-06T01:21:44.923Z,13.88
2022-10-06T01:24:12.723Z,11.95
2022-10-06T01:26:42.675Z,15.45
2022-10-06T01:29:11.307Z,13.35
2022-10-06T01:31:39.934Z,14.63
2022-10-06T01:34:08.348Z,14.82
2022-10-06T01:36:37.018Z,15.38
2022-10-06T01:39:05.313Z,15.85
2022-10-06T01:41:34.919Z,13.57
2022-10-06T01:44:03.584Z,12.98
2022-10-06T01:46:32.381Z,13.48
2022-10-06T01:49:00.908Z,15.93
2022-10-06T01:51:30.213Z,15.18
2022-10-06T01:53:59.770Z,14.38
2022-10-06T01:56:28.532Z,13.70
2022-10-06T01:58:56.336Z,13.02
2022-10-06T02:01:25.425Z,15.80
2022-10-06T02:03:56.234Z,11.52
2022-10-06T02:06:24.670Z,14.43
2022-10-06T02:08:52.743Z,11.00
2022-10-06T02:11:21.178Z,13.57
2022-10-06T02:13:51.530Z,11.93
2022-10-06T02:16:20.359Z,11.23
2022-10-06T02:18:49.081Z,14.27
2022-10-06T02:21:21.942Z,10.73
2022-10-06T02:23:52.526Z,15.85
2022-10-06T02:26:21.811Z,12.65
2022-10-06T02:28:52.184Z,14.25
2022-10-06T02:31:24.906Z,13.30
2022-10-06T02:33:53.393Z,14.20
2022-10-06T02:36:22.893Z,11.20
2022-10-06T02:38:50.723Z,12.80
2022-10-06T02:41:20.051Z,14.95
2022-10-06T02:43:48.755Z,12.88
2022-10-06T02:46:16.773Z,15.90
2022-10-06T02:48:49.679Z,11.52
2022-10-06T02:51:19.803Z,12.35
2022-10-06T02:53:49.441Z,12.57
2022-10-06T02:56:20.460Z,10.35
2022-10-06T02:58:49.890Z,11.30
2022-10-06T03:01:30.787Z,14.73
2022-10-06T03:04:02.010Z,12.27
2022-10-06T03:06:31.213Z,9.95
2022-10-06T03:09:12.400Z,14.57
2022-10-06T03:11:43.908Z,16.15
2022-10-06T03:14:32.073Z,13.10
2022-10-06T03:17:00.580Z,10.70
2022-10-06T03:19:30.221Z,11.52
2022-10-06T03:21:59.139Z,11.95
2022-10-06T03:24:37.370Z,10.05
2022-10-06T03:27:06.266Z,14.25
2022-10-06T03:29:35.685Z,10.25
2022-10-06T03:32:04.647Z,13.98
2022-10-06T03:34:34.160Z,13.57
2022-10-06T03:37:05.448Z,13.57
2022-10-06T03:39:34.449Z,9.07
2022-10-06T03:42:03.043Z,9.35
2022-10-06T03:44:34.894Z,13.07
2022-10-06T03:47:04.702Z,14.75
2022-10-06T03:49:33.840Z,10.00
2022-10-06T03:52:01.749Z,10.07
2022-10-06T03:54:34.273Z,11.77
2022-10-06T03:57:02.551Z,11.25
2022-10-06T03:59:34.514Z,13.57
2022-10-06T04:02:05.927Z,11.23
2022-10-06T04:04:38.668Z,12.38
2022-10-06T04:07:12.081Z,11.50
2022-10-06T04:09:40.818Z,12.88
2022-10-06T04:12:11.325Z,13.35
2022-10-06T04:14:40.807Z,11.77
2022-10-06T04:17:09.479Z,12.93
2022-10-06T04:19:40.789Z,12.85
2022-10-06T04:22:08.697Z,14.75
2022-10-06T04:24:36.711Z,13.88
2022-10-06T04:27:24.547Z,11.73
2022-10-06T04:30:04.134Z,14.38
2022-10-06T04:32:33.791Z,11.73
2022-10-06T04:35:02.497Z,12.95
2022-10-06T04:37:31.171Z,13.05
2022-10-06T04:40:00.324Z,13.18
2022-10-06T04:42:34.701Z,12.68
2022-10-06T04:45:07.505Z,12.00
2022-10-06T04:47:36.678Z,15.57
2022-10-06T04:50:05.662Z,10.77
2022-10-06T04:52:34.341Z,12.70
2022-10-06T04:55:04.087Z,11.23
2022-10-06T04:57:31.914Z,14.15
2022-10-06T05:00:19.286Z,10.90
2022-10-06T05:02:48.879Z,13.27
2022-10-06T05:05:17.225Z,15.50
2022-10-06T05:07:46.186Z,11.90
2022-10-06T05:10:15.355Z,12.02
2022-10-06T05:12:44.148Z,11.43
2022-10-06T05:15:12.628Z,14.38
2022-10-06T05:17:40.883Z,10.80
2022-10-06T05:20:11.730Z,14.52
2022-10-06T05:22:40.142Z,13.70
2022-10-06T05:25:09.034Z,13.18
2022-10-06T05:27:37.330Z,14.45
2022-10-06T05:30:05.900Z,9.77
2022-10-06T05:32:36.268Z,9.60
2022-10-06T05:35:06.295Z,15.75
2022-10-06T05:37:35.282Z,10.40
2022-10-06T05:40:03.766Z,16.05
2022-10-06T05:42:32.035Z,9.45
2022-10-06T05:45:02.026Z,7.90
2022-10-06T05:47:33.285Z,8.60
2022-10-06T05:50:02.240Z,13.88
2022-10-06T05:52:32.460Z,10.02
2022-10-06T05:55:00.399Z,10.13
2022-10-06T05:57:28.887Z,7.53
2022-10-06T05:59:59.234Z,12.43
2022-10-06T06:02:32.148Z,8.20
2022-10-06T06:04:59.834Z,10.32
2022-10-06T06:07:28.330Z,10.05
2022-10-06T06:09:56.921Z,10.88
2022-10-06T06:12:24.915Z,13.52
2022-10-06T06:15:24.654Z,10.68
2022-10-06T06:18:01.314Z,8.07
2022-10-06T06:20:30.012Z,9.20
2022-10-06T06:22:57.965Z,14.70
2022-10-06T06:25:28.713Z,10.93
2022-10-06T06:27:57.103Z,9.18
2022-10-06T06:30:26.116Z,7.68
2022-10-06T06:32:58.722Z,9.48
2022-10-06T06:35:27.373Z,8.82
2022-10-06T06:37:55.741Z,7.72
2022-10-06T06:40:24.185Z,6.30
2022-10-06T06:42:53.915Z,11.45
2022-10-06T06:45:40.793Z,9.50
2022-10-06T06:48:24.944Z,10.07
2022-10-06T06:50:58.624Z,8.88
2022-10-06T06:53:28.375Z,14.40
2022-10-06T06:55:59.818Z,8.93
2022-10-06T06:58:28.218Z,7.03
2022-10-06T07:01:04.995Z,11.57
2022-10-06T07:03:56.031Z,13.18
2022-10-06T07:06:28.208Z,10.68
2022-10-06T07:08:59.353Z,9.90
2022-10-06T07:11:30.775Z,14.05
2022-10-06T07:14:04.524Z,13.95
2022-10-06T07:16:51.703Z,10.38
2022-10-06T07:19:40.115Z,12.90
2022-10-06T07:22:28.290Z,9.68
2022-10-06T07:25:07.270Z,9.85
2022-10-06T07:27:53.584Z,10.23
2022-10-06T07:30:30.132Z,10.18
2022-10-06T07:33:05.550Z,9.13
2022-10-06T07:35:34.955Z,16.43
2022-10-06T07:38:08.269Z,12.48
2022-10-06T07:41:18.003Z,8.85
2022-10-06T07:43:44.769Z,11.35
2022-10-06T07:46:14.368Z,10.73
2022-10-06T07:48:56.321Z,8.10
2022-10-06T07:51:25.405Z,8.10
2022-10-06T07:53:54.217Z,10.00
2022-10-06T07:56:28.631Z,10.38
2022-10-06T07:58:59.303Z,14.50
2022-10-06T08:01:29.892Z,8.85
2022-10-06T08:03:58.420Z,8.15
2022-10-06T08:06:26.303Z,9.75
2022-10-06T08:08:55.660Z,9.32
2022-10-06T08:11:23.524Z,8.50
2022-10-06T08:13:52.199Z,10.60
2022-10-06T08:16:22.267Z,10.48
2022-10-06T08:18:54.498Z,11.80
2022-10-06T08:23:54.449Z,13.52
2022-10-06T08:26:23.359Z,12.27
2022-10-06T08:28:53.599Z,11.27
2022-10-06T08:31:23.258Z,8.18
2022-10-06T08:33:56.351Z,11.27
2022-10-06T08:36:31.578Z,7.93
2022-10-06T08:39:00.965Z,8.30
2022-10-06T08:41:32.820Z,8.13
2022-10-06T08:44:18.894Z,10.88
2022-10-06T08:47:00.889Z,7.25
2022-10-06T08:49:59.590Z,10.13
2022-10-06T08:52:59.402Z,7.05
2022-10-06T08:55:43.090Z,8.15
2022-10-06T08:58:42.530Z,8.05
2022-10-06T09:01:20.262Z,9.75
2022-10-06T09:03:49.767Z,8.20
2022-10-06T09:06:49.125Z,7.05
2022-10-06T09:09:25.508Z,9.20
2022-10-06T09:12:11.956Z,7.70
2022-10-06T09:14:43.623Z,8.68
2022-10-06T09:17:18.923Z,8.52
2022-10-06T09:19:55.763Z,16.52
2022-10-06T09:22:24.222Z,6.53
2022-10-06T09:24:56.919Z,9.07
2022-10-06T09:27:33.734Z,6.20
2022-10-06T09:30:04.866Z,8.57
2022-10-06T09:32:33.486Z,6.18
2022-10-06T09:35:03.049Z,6.13
2022-10-06T09:38:09.215Z,5.43
2022-10-06T09:40:42.673Z,8.38
2022-10-06T09:43:29.797Z,6.18
2022-10-06T09:46:22.108Z,9.63
2022-10-06T09:49:07.523Z,7.38
2022-10-06T09:51:37.261Z,15.60
2022-10-06T09:54:15.589Z,6.82
2022-10-06T09:56:45.329Z,6.32
2022-10-06T09:59:22.332Z,8.23
2022-10-06T10:01:55.276Z,7.28
2022-10-06T10:04:27.761Z,9.57
2022-10-06T10:07:15.548Z,7.82
2022-10-06T10:09:44.311Z,5.95
2022-10-06T10:12:33.520Z,10.45
2022-10-06T10:15:21.758Z,8.52
2022-10-06T10:17:54.125Z,5.65
2022-10-06T10:20:22.340Z,6.97
2022-10-06T10:22:50.455Z,7.47
2022-10-06T10:25:55.558Z,10.18
2022-10-06T10:28:31.241Z,6.95
2022-10-06T10:31:23.494Z,6.68
2022-10-06T10:34:12.908Z,6.35
2022-10-06T10:36:58.233Z,6.15
2022-10-06T10:39:56.427Z,6.60
2022-10-06T10:42:46.463Z,7.68
2022-10-06T10:45:20.724Z,7.13
2022-10-06T10:47:49.821Z,6.40
2022-10-06T10:50:59.924Z,6.90
2022-10-06T10:53:41.769Z,13.38
2022-10-06T10:56:12.754Z,19.45
2022-10-06T10:58:43.518Z,6.35
2022-10-06T11:01:42.827Z,6.82
2022-10-06T11:04:14.048Z,11.07
2022-10-06T11:07:07.443Z,5.82
2022-10-06T11:09:35.331Z,10.73
2022-10-06T11:12:21.924Z,8.75
2022-10-06T11:15:19.825Z,8.07
2022-10-06T11:17:50.480Z,7.50
2022-10-06T11:20:39.511Z,4.78
2022-10-06T11:23:32.935Z,8.07
2022-10-06T11:26:10.476Z,10.75
2022-10-06T11:28:54.060Z,4.55
2022-10-06T11:31:51.848Z,7.20
2022-10-06T11:34:20.356Z,8.60
2022-10-06T11:37:16.661Z,5.60
2022-10-06T11:40:17.764Z,4.45
2022-10-06T11:42:59.169Z,7.70
2022-10-06T11:45:35.817Z,4.15
2022-10-06T11:48:36.103Z,3.72
2022-10-06T11:51:26.135Z,6.45
2022-10-06T11:53:55.872Z,4.10
2022-10-06T11:56:37.109Z,6.30
2022-10-06T11:59:11.456Z,6.75
2022-10-06T12:01:45.348Z,5.72
2022-10-06T12:04:18.530Z,7.05
2022-10-06T12:06:55.626Z,6.63
2022-10-06T12:09:26.682Z,5.50
2022-10-06T12:12:19.111Z,5.65
2022-10-06T12:18:10.422Z,4.60
2022-10-06T12:20:47.739Z,4.13
2022-10-06T12:23:25.260Z,4.63
2022-10-06T12:26:17.505Z,4.53
2022-10-06T12:28:53.640Z,7.10
2022-10-06T12:31:47.074Z,6.72
2022-10-06T12:34:39.618Z,6.63
2022-10-06T12:37:29.368Z,3.75
2022-10-06T12:40:35.021Z,5.35
2022-10-06T12:43:34.984Z,6.50
2022-10-06T12:46:08.535Z,4.28
2022-10-06T12:51:39.312Z,4.82
2022-10-06T12:54:10.740Z,6.00
2022-10-06T12:56:43.458Z,12.75
2022-10-06T12:59:20.829Z,3.97
2022-10-06T13:02:19.955Z,9.13
2022-10-06T13:04:54.471Z,6.30
2022-10-06T13:07:28.949Z,4.65
2022-10-06T13:10:19.299Z,4.63
2022-10-06T13:12:50.748Z,4.25
2022-10-06T13:15:25.417Z,4.07
2022-10-06T13:18:13.877Z,3.97
2022-10-06T13:20:49.630Z,4.88
2022-10-06T13:23:37.624Z,2.63
2022-10-06T13:26:08.930Z,6.00
2022-10-06T13:28:37.560Z,5.60
2022-10-06T13:31:26.931Z,3.72
2022-10-06T13:34:10.415Z,3.15
2022-10-06T13:36:41.141Z,6.22
2022-10-06T13:39:14.571Z,2.92
2022-10-06T13:41:52.989Z,2.95
2022-10-06T13:44:35.144Z,3.85
2022-10-06T13:47:24.734Z,4.10
2022-10-06T13:50:06.873Z,2.90
2022-10-06T13:52:43.943Z,2.90
2022-10-06T13:55:19.169Z,4.50
2022-10-06T13:58:09.273Z,5.72
2022-10-06T14:00:58.663Z,5.05
2022-10-06T14:03:37.317Z,5.55
2022-10-06T14:06:08.833Z,6.53
2022-10-06T14:08:37.007Z,3.55
2022-10-06T14:11:09.011Z,4.05
2022-10-06T14:13:43.444Z,6.45
2022-10-06T14:16:20.268Z,4.53
2022-10-06T14:19:03.584Z,3.63
2022-10-06T14:21:39.928Z,2.45
2022-10-06T14:24:17.017Z,7.15
2022-10-06T14:26:46.209Z,2.78
2022-10-06T14:29:14.819Z,4.15
2022-10-06T14:31:44.650Z,3.38
2022-10-06T14:34:17.536Z,3.22
2022-10-06T14:36:55.517Z,5.38
2022-10-06T14:39:23.849Z,6.10
2022-10-06T14:41:52.490Z,5.63
2022-10-06T14:44:21.143Z,4.45
2022-10-06T14:46:49.624Z,3.50
2022-10-06T14:49:18.199Z,5.13
2022-10-06T14:51:46.817Z,9.32
2022-10-06T14:54:15.915Z,5.22
2022-10-06T14:56:44.240Z,3.67
2022-10-06T14:59:17.444Z,5.15
2022-10-06T15:01:47.307Z,5.55
2022-10-06T15:04:20.743Z,3.42
2022-10-06T15:07:07.311Z,4.05
2022-10-06T15:09:35.905Z,5.57
2022-10-06T15:12:05.341Z,2.78
2022-10-06T15:14:35.130Z,2.72
2022-10-06T15:17:03.729Z,3.08
2022-10-06T15:19:32.197Z,3.20
2022-10-06T15:22:01.381Z,2.83
2022-10-06T15:24:29.422Z,4.07
2022-10-06T15:27:15.728Z,7.03
2022-10-06T15:29:43.985Z,2.53
2022-10-06T15:32:12.129Z,6.07
2022-10-06T15:34:39.947Z,4.15
2022-10-06T15:37:08.216Z,3.92
2022-10-06T15:39:37.991Z,4.35
2022-10-06T15:42:08.250Z,3.88
2022-10-06T15:44:36.279Z,6.78
2022-10-06T15:47:06.371Z,9.98
2022-10-06T15:49:38.851Z,10.88
2022-10-06T15:54:41.319Z,7.38
2022-10-06T15:59:41.968Z,7.97
2022-10-06T16:02:16.388Z,8.38
2022-10-06T16:05:09.629Z,9.85
2022-10-06T16:07:38.438Z,5.22
2022-10-06T16:10:07.003Z,8.55
2022-10-06T16:12:35.047Z,17.02
2022-10-06T16:15:04.249Z,8.75
2022-10-06T16:17:32.224Z,11.90
2022-10-06T16:20:00.350Z,17.45
2022-10-06T16:22:28.998Z,16.40
2022-10-06T16:24:56.869Z,19.35
2022-10-06T16:27:25.936Z,12.43
2022-10-06T16:29:56.089Z,7.38
2022-10-06T16:32:24.297Z,11.70
2022-10-06T16:34:52.930Z,13.68
2022-10-06T16:37:21.455Z,7.70
2022-10-06T16:39:49.240Z,18.15
2022-10-06T16:42:18.315Z,12.55
2022-10-06T16:44:46.440Z,8.23
2022-10-06T16:47:14.924Z,8.23
2022-10-06T16:49:43.415Z,9.13
2022-10-06T16:52:11.352Z,22.63
2022-10-06T16:54:39.247Z,24.50
2022-10-06T16:57:07.823Z,10.88
2022-10-06T16:59:35.904Z,8.68
2022-10-06T17:02:03.584Z,8.30
2022-10-06T17:04:32.004Z,8.05
2022-10-06T17:07:00.024Z,9.40
2022-10-06T17:09:32.517Z,19.30
2022-10-06T17:12:02.179Z,13.38
2022-10-06T17:14:31.646Z,8.98
2022-10-06T17:17:02.513Z,9.48
2022-10-06T17:19:31.707Z,14.65
2022-10-06T17:22:00.164Z,8.25
2022-10-06T17:24:31.701Z,13.85
2022-10-06T17:26:59.562Z,12.70
2022-10-06T17:29:28.430Z,12.23
2022-10-06T17:31:59.671Z,8.10
2022-10-06T17:34:33.500Z,9.70
2022-10-06T17:37:02.348Z,11.65
2022-10-06T17:39:31.067Z,13.57
2022-10-06T17:41:59.648Z,12.10
2022-10-06T17:44:30.376Z,12.43
2022-10-06T17:47:00.913Z,11.63
2022-10-06T17:49:33.064Z,14.18
2022-10-06T17:52:02.315Z,13.40
2022-10-06T17:54:33.585Z,15.05
2022-10-06T17:57:01.451Z,13.32
2022-10-06T17:59:32.094Z,11.63
2022-10-06T18:02:03.030Z,13.00
2022-10-06T18:07:03.726Z,13.50
2022-10-06T18:09:31.821Z,17.75
2022-10-06T18:12:01.284Z,13.95
2022-10-06T18:14:34.904Z,15.27
2022-10-06T18:17:04.300Z,18.00
2022-10-06T18:19:34.883Z,14.10
2022-10-06T18:22:10.919Z,16.17
2022-10-06T18:24:40.256Z,16.40
2022-10-06T18:27:09.260Z,15.85
2022-10-06T18:29:38.931Z,18.17
2022-10-06T18:37:44.555Z,14.52
2022-10-06T18:40:14.973Z,15.05
2022-10-06T18:42:43.204Z,14.30
2022-10-06T18:45:35.424Z,18.73
2022-10-06T18:48:23.369Z,30.73
2022-10-06T18:51:04.233Z,16.83
2022-10-06T18:53:33.775Z,16.98
2022-10-06T18:56:02.314Z,16.13
2022-10-06T18:58:30.070Z,19.30
2022-10-06T19:00:58.894Z,14.95
2022-10-06T19:03:28.439Z,28.70
2022-10-06T19:05:56.230Z,21.08
2022-10-06T19:08:24.488Z,20.40
2022-10-06T19:11:10.803Z,19.67
2022-10-06T19:13:42.537Z,21.58
2022-10-06T19:16:11.123Z,15.82
2022-10-06T19:18:39.930Z,16.98
2022-10-06T19:21:09.882Z,15.30
2022-10-06T19:23:39.251Z,21.27
2022-10-06T19:26:09.707Z,20.67
2022-10-06T19:28:38.175Z,17.23
2022-10-06T19:31:18.728Z,16.55
2022-10-06T19:33:50.467Z,22.70
2022-10-06T19:36:19.035Z,18.20
2022-10-06T19:38:47.452Z,22.23
2022-10-06T19:41:33.991Z,25.52
2022-10-06T19:44:03.306Z,28.42
2022-10-06T19:46:31.265Z,24.50
2022-10-06T19:48:59.624Z,21.40
2022-10-06T19:51:28.331Z,21.50
2022-10-06T19:53:56.400Z,19.25
2022-10-06T19:56:25.952Z,23.02
2022-10-06T19:58:53.984Z,23.55
2022-10-06T20:01:21.517Z,24.98
2022-10-06T20:03:49.307Z,22.48
2022-10-06T20:06:17.187Z,22.02
2022-10-06T20:08:44.706Z,20.52
2022-10-06T20:11:14.801Z,23.58
2022-10-06T20:13:43.160Z,22.75
2022-10-06T20:16:14.678Z,24.13
2022-10-06T20:18:43.056Z,28.25
2022-10-06T20:21:18.992Z,18.05
2022-10-06T20:23:52.095Z,20.38
2022-10-06T20:26:24.218Z,18.38
2022-10-06T20:28:52.351Z,29.30
2022-10-06T20:31:30.222Z,21.55
2022-10-06T20:34:00.070Z,20.52
2022-10-06T20:36:29.551Z,28.35
2022-10-06T20:39:16.089Z,23.05
2022-10-06T20:41:44.254Z,20.58
2022-10-06T20:44:13.745Z,18.10
2022-10-06T20:46:44.526Z,22.83
2022-10-06T20:49:17.578Z,31.13
2022-10-06T20:51:51.687Z,27.20
2022-10-06T20:54:35.211Z,26.27
2022-10-06T20:57:07.559Z,22.48
2022-10-06T20:59:37.920Z,23.88
2022-10-06T21:02:07.418Z,27.55
2022-10-06T21:04:35.696Z,23.25
2022-10-06T21:07:08.930Z,28.67
2022-10-06T21:09:38.817Z,24.10
2022-10-06T21:12:07.357Z,19.40
2022-10-06T21:14:35.471Z,18.83
2022-10-06T21:17:03.939Z,20.40
2022-10-06T21:19:34.531Z,17.15
2022-10-06T21:22:03.329Z,22.80
2022-10-06T21:24:31.697Z,29.55
2022-10-06T21:27:00.458Z,23.98
2022-10-06T21:29:28.387Z,24.05
2022-10-06T21:31:56.591Z,20.20
2022-10-06T21:34:24.526Z,22.15
2022-10-06T21:36:52.843Z,18.80
2022-10-06T21:39:20.939Z,19.75
2022-10-06T21:41:49.249Z,20.02
2022-10-06T21:44:19.003Z,21.52
2022-10-06T21:46:50.608Z,22.65
2022-10-06T21:49:23.110Z,22.33
2022-10-06T21:51:53.872Z,21.23
2022-10-06T21:54:23.331Z,19.85
2022-10-06T21:56:52.898Z,26.60
2022-10-06T21:59:21.479Z,22.42
2022-10-06T22:01:51.173Z,24.95
2022-10-06T22:04:20.088Z,26.55
2022-10-06T22:06:51.419Z,21.20
2022-10-06T22:09:20.916Z,22.35
2022-10-06T22:11:49.629Z,27.23
2022-10-06T22:14:19.250Z,27.38
2022-10-06T22:16:48.668Z,26.13
2022-10-06T22:19:18.317Z,21.80
2022-10-06T22:21:48.705Z,25.88
2022-10-06T22:24:19.692Z,24.13
2022-10-06T22:26:49.035Z,25.25
2022-10-06T22:29:18.771Z,27.38
2022-10-06T22:31:48.423Z,24.75
2022-10-06T22:34:20.638Z,22.00
2022-10-06T22:36:48.825Z,20.35
2022-10-06T22:39:18.374Z,22.08
2022-10-06T22:41:46.453Z,26.55
2022-10-06T22:44:15.164Z,28.40
2022-10-06T22:46:43.278Z,35.05
2022-10-06T22:49:11.611Z,31.92
2022-10-06T22:51:40.267Z,30.80
2022-10-06T22:54:08.538Z,33.42
2022-10-06T22:56:36.675Z,30.92
2022-10-06T22:59:04.813Z,28.75
2022-10-06T23:01:32.422Z,25.33
2022-10-06T23:04:02.084Z,30.92
2022-10-06T23:06:31.705Z,31.67
2022-10-06T23:09:00.225Z,31.70
2022-10-06T23:11:29.123Z,28.33
2022-10-06T23:13:57.868Z,27.60
2022-10-06T23:16:26.288Z,31.45
2022-10-06T23:18:55.575Z,31.60
2022-10-06T23:21:27.505Z,26.92
2022-10-06T23:23:58.684Z,26.70
2022-10-06T23:26:28.171Z,25.17
2022-10-06T23:28:59.427Z,23.73
2022-10-06T23:31:29.141Z,29.98
2022-10-06T23:33:57.611Z,25.42
2022-10-06T23:36:26.364Z,27.17
2022-10-06T23:38:55.966Z,27.35
2022-10-06T23:41:24.234Z,26.65
2022-10-06T23:43:52.544Z,24.73
2022-10-06T23:46:20.737Z,27.67
2022-10-06T23:48:49.233Z,23.02
2022-10-06T23:51:17.065Z,23.45
2022-10-06T23:53:45.729Z,29.38
2022-10-06T23:56:14.054Z,32.92
2022-10-06T23:58:42.904Z,34.63
